createdAt,value
2018-06-19T00:01:16.338Z,100057.98
2018-06-19T00:02:51.830Z,100062.26
2018-06-19T00:04:27.788Z,100058.90
2018-06-19T00:06:03.294Z,100059.16
2018-06-19T00:07:38.838Z,100060.05
2018-06-19T00:09:14.430Z,100057.73
2018-06-19T00:10:49.973Z,100061.14
2018-06-19T00:12:25.484Z,100060.73
2018-06-19T00:14:01.183Z,100056.96
2018-06-19T00:15:37.032Z,100056.72
2018-06-19T00:17:13.455Z,100057.27
2018-06-19T00:18:55.156Z,100057.72
2018-06-19T00:20:30.679Z,100058.56
2018-06-19T00:22:06.288Z,100063.31
2018-06-19T00:23:42.505Z,100058.81
2018-06-19T00:25:18.314Z,100060.48
2018-06-19T00:26:54.149Z,100067.20
2018-06-19T00:28:29.989Z,100066.70
2018-06-19T00:30:06.581Z,100069.54
2018-06-19T00:31:43.177Z,100071.52
2018-06-19T00:33:19.584Z,100066.45
2018-06-19T00:34:55.124Z,100067.34
2018-06-19T00:36:30.706Z,100070.75
2018-06-19T00:38:07.457Z,100065.28
2018-06-19T00:39:43.018Z,100072.62
2018-06-19T00:41:18.528Z,100067.02
2018-06-19T00:42:54.136Z,100069.52
2018-06-19T00:44:29.849Z,100065.11
2018-06-19T00:46:06.391Z,100074.20
2018-06-19T00:47:42.533Z,100071.86
2018-06-19T00:49:18.092Z,100067.24
2018-06-19T00:50:54.439Z,100070.57
2018-06-19T00:52:30.018Z,100069.86
2018-06-19T00:54:05.576Z,100066.26
2018-06-19T00:55:41.155Z,100071.06
2018-06-19T00:57:18.754Z,100063.94
2018-06-19T00:58:54.647Z,100068.50
2018-06-19T01:00:30.149Z,100061.08
2018-06-19T01:02:05.888Z,100068.63
2018-06-19T01:03:41.398Z,100076.68
2018-06-19T01:05:17.363Z,100068.56
2018-06-19T01:06:53.142Z,100069.91
2018-06-19T01:08:28.665Z,100071.83
2018-06-19T01:10:04.291Z,100076.62
2018-06-19T01:11:40.382Z,100075.80
2018-06-19T01:13:16.865Z,100072.24
2018-06-19T01:14:52.628Z,100076.30
2018-06-19T01:16:28.136Z,100073.22
2018-06-19T01:18:05.083Z,100073.17
2018-06-19T01:19:41.194Z,100073.44
2018-06-19T01:21:17.871Z,100066.38
2018-06-19T01:22:54.244Z,100065.30
2018-06-19T01:24:30.427Z,100065.22
2018-06-19T01:26:05.993Z,100067.91
2018-06-19T01:27:41.735Z,100067.65
2018-06-19T01:29:17.246Z,100072.47
2018-06-19T01:30:53.167Z,100071.31
2018-06-19T01:32:29.672Z,100070.55
2018-06-19T01:34:05.620Z,100072.84
2018-06-19T01:35:41.346Z,100070.53
2018-06-19T01:37:16.903Z,100069.90
2018-06-19T01:38:52.661Z,100073.31
2018-06-19T01:40:29.309Z,100073.25
2018-06-19T01:42:04.864Z,100074.56
2018-06-19T01:43:40.868Z,100069.45
2018-06-19T01:45:16.678Z,100073.88
2018-06-19T01:46:52.758Z,100067.86
2018-06-19T01:48:29.083Z,100078.56
2018-06-19T01:50:05.091Z,100075.98
2018-06-19T01:51:42.458Z,100070.91
2018-06-19T01:53:18.692Z,100073.94
2018-06-19T01:54:54.398Z,100077.80
2018-06-19T01:56:29.964Z,100020.59
2018-06-19T01:58:05.873Z,100072.36
2018-06-19T01:59:41.508Z,100073.55
2018-06-19T02:01:17.780Z,100075.95
2018-06-19T02:02:53.855Z,100077.09
2018-06-19T02:04:29.410Z,100073.05
2018-06-19T02:06:04.971Z,100071.57
2018-06-19T02:07:40.534Z,100073.53
2018-06-19T02:09:16.059Z,100073.09
2018-06-19T02:10:51.570Z,100068.48
2018-06-19T02:12:27.107Z,100060.41
2018-06-19T02:14:03.599Z,100062.31
2018-06-19T02:15:39.139Z,100066.11
2018-06-19T02:17:14.914Z,100065.19
2018-06-19T02:18:50.419Z,100062.14
2018-06-19T02:20:26.025Z,100061.63
2018-06-19T02:22:01.992Z,100066.60
2018-06-19T02:23:37.777Z,100063.09
2018-06-19T02:25:13.310Z,100063.05
2018-06-19T02:26:48.814Z,100062.58
2018-06-19T02:28:24.740Z,100066.66
2018-06-19T02:30:00.287Z,100068.70
2018-06-19T02:31:36.530Z,100066.83
2018-06-19T02:33:12.016Z,100068.41
2018-06-19T02:34:48.250Z,100072.10
2018-06-19T02:36:23.873Z,100070.67
2018-06-19T02:37:59.693Z,100069.56
2018-06-19T02:39:35.257Z,100075.02
2018-06-19T02:41:10.764Z,100073.63
2018-06-19T02:42:46.314Z,100072.70
2018-06-19T02:44:21.993Z,100070.19
2018-06-19T02:45:58.076Z,100068.81
2018-06-19T02:47:33.595Z,100068.08
2018-06-19T02:49:09.185Z,100070.19
2018-06-19T02:50:44.774Z,100067.94
2018-06-19T02:52:20.299Z,100066.01
2018-06-19T02:53:55.804Z,100061.39
2018-06-19T02:55:32.663Z,100062.38
2018-06-19T02:57:09.056Z,100066.49
2018-06-19T02:58:44.635Z,100070.69
2018-06-19T03:00:20.314Z,100068.88
2018-06-19T03:01:55.866Z,100066.62
2018-06-19T03:03:31.404Z,100064.05
2018-06-19T03:05:06.994Z,100064.34
2018-06-19T03:06:42.524Z,100069.25
2018-06-19T03:08:19.002Z,100070.91
2018-06-19T03:09:55.567Z,100063.35
2018-06-19T03:11:31.131Z,100066.88
2018-06-19T03:13:06.825Z,100067.58
2018-06-19T03:14:42.404Z,100065.91
2018-06-19T03:16:17.967Z,100067.20
2018-06-19T03:17:53.650Z,100069.70
2018-06-19T03:19:29.186Z,100068.88
2018-06-19T03:21:04.776Z,100066.48
2018-06-19T03:22:40.775Z,100069.52
2018-06-19T03:24:16.709Z,100072.89
2018-06-19T03:25:52.215Z,100070.55
2018-06-19T03:27:27.719Z,100071.27
2018-06-19T03:29:03.251Z,100075.52
2018-06-19T03:30:38.808Z,100073.10
2018-06-19T03:32:14.347Z,100076.03
2018-06-19T03:33:49.948Z,100076.81
2018-06-19T03:35:25.685Z,100082.02
2018-06-19T03:37:01.259Z,100085.61
2018-06-19T03:38:36.826Z,100081.67
2018-06-19T03:40:12.447Z,100074.34
2018-06-19T03:41:49.000Z,100081.09
2018-06-19T03:43:24.566Z,100070.62
2018-06-19T03:45:00.522Z,100070.77
2018-06-19T03:46:36.075Z,100080.08
2018-06-19T03:48:11.634Z,100077.17
2018-06-19T03:49:47.276Z,100075.85
2018-06-19T03:51:22.903Z,100079.93
2018-06-19T03:52:58.429Z,100084.98
2018-06-19T03:54:33.978Z,100077.00
2018-06-19T03:56:11.299Z,100085.23
2018-06-19T03:57:46.807Z,100085.47
2018-06-19T03:59:22.559Z,100091.97
2018-06-19T04:00:58.348Z,100088.31
2018-06-19T04:02:33.991Z,100087.00
2018-06-19T04:04:10.176Z,100086.89
2018-06-19T04:05:45.756Z,100083.09
2018-06-19T04:07:21.279Z,100086.08
2018-06-19T04:08:57.644Z,100090.21
2018-06-19T04:10:34.126Z,100088.65
2018-06-19T04:12:09.706Z,100092.41
2018-06-19T04:13:46.123Z,100081.11
2018-06-19T04:15:21.724Z,100074.83
2018-06-19T04:16:57.344Z,100080.34
2018-06-19T04:18:32.824Z,100076.76
2018-06-19T04:20:08.343Z,100078.08
2018-06-19T04:21:43.855Z,100079.10
2018-06-19T04:23:19.379Z,100078.58
2018-06-19T04:24:55.303Z,100077.58
2018-06-19T04:26:30.846Z,100075.67
2018-06-19T04:28:06.471Z,100077.11
2018-06-19T04:29:42.570Z,100085.31
2018-06-19T04:31:18.183Z,100079.08
2018-06-19T04:32:54.026Z,100091.53
2018-06-19T04:34:29.529Z,100085.81
2018-06-19T04:36:06.556Z,100088.37
2018-06-19T04:37:42.123Z,100078.38
2018-06-19T04:39:17.761Z,100082.20
2018-06-19T04:40:53.396Z,100081.11
2018-06-19T04:42:29.010Z,100077.01
2018-06-19T04:44:06.270Z,100081.67
2018-06-19T04:45:42.171Z,100086.20
2018-06-19T04:47:17.799Z,100085.07
2018-06-19T04:48:59.139Z,100091.09
2018-06-19T04:50:34.678Z,100088.09
2018-06-19T04:52:10.291Z,100088.06
2018-06-19T04:53:48.230Z,100081.78
2018-06-19T04:55:23.754Z,100081.51
2018-06-19T04:57:00.075Z,100084.55
2018-06-19T04:58:35.907Z,100085.90
2018-06-19T05:00:11.446Z,100086.12
2018-06-19T05:01:47.083Z,100088.88
2018-06-19T05:03:22.731Z,100093.84
2018-06-19T05:04:58.322Z,100091.43
2018-06-19T05:06:39.670Z,100095.09
2018-06-19T05:08:15.314Z,100092.14
2018-06-19T05:09:51.164Z,100092.48
2018-06-19T05:11:26.797Z,100094.47
2018-06-19T05:13:02.453Z,100100.03
2018-06-19T05:14:38.074Z,100094.42
2018-06-19T05:16:13.689Z,100098.39
2018-06-19T05:17:49.512Z,100100.59
2018-06-19T05:19:25.327Z,100093.20
2018-06-19T05:21:00.996Z,100105.64
2018-06-19T05:22:36.607Z,100100.34
2018-06-19T05:24:12.147Z,100106.16
2018-06-19T05:25:47.726Z,100103.45
2018-06-19T05:27:23.264Z,100105.86
2018-06-19T05:28:59.316Z,100110.16
2018-06-19T05:30:35.042Z,100113.23
2018-06-19T05:32:10.666Z,100113.16
2018-06-19T05:33:46.277Z,100118.87
2018-06-19T05:35:21.791Z,100110.99
2018-06-19T05:36:57.512Z,100117.76
2018-06-19T05:38:34.247Z,100118.98
2018-06-19T05:40:09.823Z,100116.98
2018-06-19T05:41:45.846Z,100114.13
2018-06-19T05:43:22.298Z,100115.88
2018-06-19T05:44:57.834Z,100120.66
2018-06-19T05:46:33.537Z,100122.30
2018-06-19T05:48:09.811Z,100124.58
2018-06-19T05:49:45.392Z,100118.67
2018-06-19T05:51:21.541Z,100125.50
2018-06-19T05:52:57.158Z,100129.74
2018-06-19T05:54:32.792Z,100129.67
2018-06-19T05:56:08.384Z,100130.00
2018-06-19T05:57:43.878Z,100126.16
2018-06-19T05:59:19.422Z,100139.56
2018-06-19T06:00:55.066Z,100140.98
2018-06-19T06:02:30.657Z,100138.52
2018-06-19T06:04:06.251Z,100134.27
2018-06-19T06:05:41.940Z,100135.55
2018-06-19T06:07:19.359Z,100141.67
2018-06-19T06:08:55.705Z,100143.65
2018-06-19T06:10:31.273Z,100143.95
2018-06-19T06:12:06.812Z,100144.38
2018-06-19T06:13:42.507Z,100147.39
2018-06-19T06:15:18.039Z,100152.50
2018-06-19T06:16:53.915Z,100151.61
2018-06-19T06:18:29.444Z,100151.54
2018-06-19T06:20:05.330Z,100154.12
2018-06-19T06:21:40.908Z,100158.22
2018-06-19T06:23:16.960Z,100163.59
2018-06-19T06:24:52.457Z,100157.15
2018-06-19T06:26:27.985Z,100159.94
2018-06-19T06:28:03.871Z,100163.81
2018-06-19T06:29:39.391Z,100160.53
2018-06-19T06:31:15.022Z,100166.29
2018-06-19T06:32:50.643Z,100160.80
2018-06-19T06:34:26.238Z,100160.64
2018-06-19T06:36:01.839Z,100163.14
2018-06-19T06:37:37.476Z,100168.21
2018-06-19T06:39:13.030Z,100170.27
2018-06-19T06:40:48.577Z,100167.36
2018-06-19T06:42:24.183Z,100166.81
2018-06-19T06:43:59.770Z,100170.37
2018-06-19T06:45:35.374Z,100162.27
2018-06-19T06:47:10.935Z,100167.04
2018-06-19T06:48:46.490Z,100161.24
2018-06-19T06:50:22.137Z,100170.77
2018-06-19T06:51:57.820Z,100160.59
2018-06-19T06:53:33.550Z,100161.28
2018-06-19T06:55:09.107Z,100164.02
2018-06-19T06:56:44.708Z,100166.63
2018-06-19T06:58:20.308Z,100167.97
2018-06-19T06:59:55.897Z,100161.60
2018-06-19T07:01:31.471Z,100162.49
2018-06-19T07:03:07.034Z,100158.20
2018-06-19T07:04:42.599Z,100160.73
2018-06-19T07:06:18.106Z,100155.14
2018-06-19T07:07:53.631Z,100161.38
2018-06-19T07:09:29.184Z,100155.56
2018-06-19T07:11:04.740Z,100153.38
2018-06-19T07:12:40.258Z,100160.31
2018-06-19T07:14:15.747Z,100157.23
2018-06-19T07:15:51.324Z,100150.75
2018-06-19T07:17:26.894Z,100149.72
2018-06-19T07:19:02.483Z,100147.88
2018-06-19T07:20:39.220Z,100144.52
2018-06-19T07:22:14.753Z,100161.84
2018-06-19T07:23:50.310Z,100158.58
2018-06-19T07:25:25.870Z,100150.19
2018-06-19T07:27:01.486Z,100157.97
2018-06-19T07:28:37.083Z,100150.20
2018-06-19T07:30:12.717Z,100155.12
2018-06-19T07:31:48.358Z,100153.16
2018-06-19T07:33:24.558Z,100158.91
2018-06-19T07:35:00.147Z,100162.31
2018-06-19T07:36:35.682Z,100156.26
2018-06-19T07:38:11.418Z,100159.53
2018-06-19T07:39:46.971Z,100160.80
2018-06-19T07:41:22.601Z,100152.21
2018-06-19T07:43:02.168Z,100148.14
2018-06-19T07:44:37.732Z,100157.41
2018-06-19T07:46:13.306Z,100147.87
2018-06-19T07:47:48.936Z,100155.56
2018-06-19T07:49:24.511Z,100156.33
2018-06-19T07:51:05.778Z,100159.27
2018-06-19T07:52:41.333Z,100163.13
2018-06-19T07:54:16.911Z,100158.22
2018-06-19T07:55:52.518Z,100154.95
2018-06-19T07:57:28.245Z,100158.05
2018-06-19T07:59:03.916Z,100156.56
2018-06-19T08:00:39.517Z,100159.92
2018-06-19T08:02:15.128Z,100159.15
2018-06-19T08:03:50.777Z,100158.68
2018-06-19T08:05:26.716Z,100162.47
2018-06-19T08:07:06.477Z,100157.78
2018-06-19T08:08:42.101Z,100159.95
2018-06-19T08:10:17.672Z,100157.48
2018-06-19T08:11:53.197Z,100157.98
2018-06-19T08:13:28.881Z,100148.69
2018-06-19T08:15:04.536Z,100162.13
2018-06-19T08:16:40.151Z,100164.05
2018-06-19T08:18:15.715Z,100162.81
2018-06-19T08:19:51.283Z,100168.06
2018-06-19T08:21:27.241Z,100165.03
2018-06-19T08:23:04.238Z,100167.55
2018-06-19T08:24:39.814Z,100167.06
2018-06-19T08:26:15.405Z,100168.92
2018-06-19T08:27:50.984Z,100163.39
2018-06-19T08:29:26.535Z,100163.42
2018-06-19T08:31:02.101Z,100160.84
2018-06-19T08:32:37.663Z,100161.55
2018-06-19T08:34:13.271Z,100158.11
2018-06-19T08:35:48.887Z,100154.06
2018-06-19T08:37:24.917Z,100153.35
2018-06-19T08:39:00.548Z,100151.31
2018-06-19T08:40:36.154Z,100146.81
2018-06-19T08:42:12.306Z,100151.09
2018-06-19T08:43:48.047Z,100152.76
2018-06-19T08:45:23.630Z,100148.70
2018-06-19T08:46:59.256Z,100143.12
2018-06-19T08:48:34.890Z,100149.42
2018-06-19T08:50:10.517Z,100140.67
2018-06-19T08:51:46.100Z,100138.73
2018-06-19T08:53:21.642Z,100148.80
2018-06-19T08:54:57.240Z,100141.42
2018-06-19T08:56:33.428Z,100145.11
2018-06-19T08:58:10.715Z,100149.34
2018-06-19T08:59:46.373Z,100151.05
2018-06-19T09:01:21.992Z,100147.09
2018-06-19T09:02:57.649Z,100152.21
2018-06-19T09:04:33.278Z,100156.03
2018-06-19T09:06:08.843Z,100156.32
2018-06-19T09:07:44.580Z,100150.88
2018-06-19T09:09:20.319Z,100159.72
2018-06-19T09:10:55.947Z,100154.53
2018-06-19T09:12:31.547Z,100163.22
2018-06-19T09:14:07.346Z,100154.95
2018-06-19T09:15:42.980Z,100164.98
2018-06-19T09:17:18.525Z,100153.90
2018-06-19T09:18:54.104Z,100156.53
2018-06-19T09:20:29.765Z,100154.39
2018-06-19T09:22:05.227Z,100151.22
2018-06-19T09:23:40.799Z,100149.55
2018-06-19T09:25:16.417Z,100151.33
2018-06-19T09:26:52.006Z,100145.27
2018-06-19T09:28:27.559Z,100154.50
2018-06-19T09:30:03.168Z,100155.14
2018-06-19T09:31:38.784Z,100151.81
2018-06-19T09:33:14.311Z,100150.52
2018-06-19T09:34:49.948Z,100147.75
2018-06-19T09:36:26.150Z,100144.25
2018-06-19T09:38:01.783Z,100146.57
2018-06-19T09:39:37.490Z,100143.65
2018-06-19T09:41:14.520Z,100140.48
2018-06-19T09:42:50.063Z,100139.53
2018-06-19T09:44:25.650Z,100135.84
2018-06-19T09:46:01.878Z,100142.73
2018-06-19T09:47:37.600Z,100143.42
2018-06-19T09:49:13.388Z,100137.16
2018-06-19T09:50:49.096Z,100142.55
2018-06-19T09:52:24.627Z,100143.21
2018-06-19T09:54:00.345Z,100143.55
2018-06-19T09:55:35.907Z,100143.16
2018-06-19T09:57:11.592Z,100140.71
2018-06-19T09:58:47.275Z,100141.48
2018-06-19T10:00:28.176Z,100124.86
2018-06-19T10:02:03.719Z,100135.44
2018-06-19T10:03:39.389Z,100130.11
2018-06-19T10:05:14.955Z,100137.61
2018-06-19T10:06:50.517Z,100133.92
2018-06-19T10:08:26.116Z,100125.64
2018-06-19T10:10:01.997Z,100124.81
2018-06-19T10:11:37.671Z,100133.03
2018-06-19T10:13:13.229Z,100125.92
2018-06-19T10:14:48.856Z,100136.55
2018-06-19T10:16:24.416Z,100131.23
2018-06-19T10:18:00.216Z,100130.30
2018-06-19T10:19:35.832Z,100129.55
2018-06-19T10:21:11.364Z,100133.28
2018-06-19T10:22:47.626Z,100141.77
2018-06-19T10:24:23.658Z,100138.14
2018-06-19T10:25:59.154Z,100135.48
2018-06-19T10:27:34.731Z,100135.45
2018-06-19T10:29:10.264Z,100137.40
2018-06-19T10:30:46.583Z,100135.19
2018-06-19T10:32:22.919Z,100144.40
2018-06-19T10:33:58.417Z,100133.59
2018-06-19T10:35:33.960Z,100140.92
2018-06-19T10:37:09.519Z,100135.78
2018-06-19T10:38:45.091Z,100141.94
2018-06-19T10:40:20.664Z,100147.40
2018-06-19T10:41:56.235Z,100153.41
2018-06-19T10:43:31.865Z,100142.44
2018-06-19T10:45:07.484Z,100145.60
2018-06-19T10:46:43.093Z,100144.97
2018-06-19T10:48:18.915Z,100146.30
2018-06-19T10:49:55.031Z,100146.48
2018-06-19T10:51:30.704Z,100150.23
2018-06-19T10:53:06.347Z,100154.70
2018-06-19T10:54:41.903Z,100145.56
2018-06-19T10:56:17.754Z,100145.27
2018-06-19T10:57:53.813Z,100149.37
2018-06-19T10:59:29.885Z,100153.13
2018-06-19T11:01:05.591Z,100153.75
2018-06-19T11:02:42.415Z,100154.14
2018-06-19T11:04:21.361Z,100158.52
2018-06-19T11:05:57.337Z,100163.13
2018-06-19T11:07:32.884Z,100163.96
2018-06-19T11:09:09.994Z,100157.39
2018-06-19T11:10:46.174Z,100156.50
2018-06-19T11:12:21.798Z,100154.58
2018-06-19T11:13:57.543Z,100152.59
2018-06-19T11:15:33.843Z,100165.29
2018-06-19T11:17:12.038Z,100154.68
2018-06-19T11:18:47.755Z,100154.39
2018-06-19T11:20:23.876Z,100153.23
2018-06-19T11:21:59.483Z,100153.59
2018-06-19T11:23:37.869Z,100153.59
2018-06-19T11:25:13.719Z,100154.62
2018-06-19T11:26:52.890Z,100155.70
2018-06-19T11:28:28.494Z,100155.34
2018-06-19T11:30:04.271Z,100144.56
2018-06-19T11:31:39.904Z,100153.55
2018-06-19T11:33:15.555Z,100152.11
2018-06-19T11:34:51.094Z,100152.55
2018-06-19T11:36:26.628Z,100148.72
2018-06-19T11:38:03.051Z,100151.33
2018-06-19T11:39:39.136Z,100147.75
2018-06-19T11:41:14.725Z,100150.58
2018-06-19T11:42:50.309Z,100143.67
2018-06-19T11:44:25.896Z,100154.03
2018-06-19T11:46:02.216Z,100150.91
2018-06-19T11:47:37.816Z,100152.69
2018-06-19T11:49:13.529Z,100151.57
2018-06-19T11:50:48.995Z,100145.48
2018-06-19T11:52:24.615Z,100151.93
2018-06-19T11:54:00.505Z,100152.73
2018-06-19T11:55:36.076Z,100142.05
2018-06-19T11:57:11.637Z,100151.70
2018-06-19T11:58:47.643Z,100154.44
2018-06-19T12:00:23.248Z,100156.56
2018-06-19T12:01:59.041Z,100160.81
2018-06-19T12:03:34.764Z,100156.19
2018-06-19T12:05:10.301Z,100162.70
2018-06-19T12:06:45.889Z,100155.18
2018-06-19T12:08:21.868Z,100160.11
2018-06-19T12:09:57.464Z,100151.11
2018-06-19T12:11:33.067Z,100155.84
2018-06-19T12:13:08.728Z,100158.23
2018-06-19T12:14:45.408Z,100156.58
2018-06-19T12:16:21.083Z,100166.44
2018-06-19T12:17:56.827Z,100163.32
2018-06-19T12:19:32.402Z,100160.11
2018-06-19T12:21:08.048Z,100158.19
2018-06-19T12:22:43.710Z,100175.92
2018-06-19T12:24:19.353Z,100161.55
2018-06-19T12:25:54.958Z,100167.78
2018-06-19T12:27:30.506Z,100164.15
2018-06-19T12:29:06.062Z,100174.53
2018-06-19T12:30:41.712Z,100167.50
2018-06-19T12:32:17.299Z,100164.88
2018-06-19T12:33:52.895Z,100163.55
2018-06-19T12:35:28.510Z,100161.45
2018-06-19T12:37:04.092Z,100163.41
2018-06-19T12:38:39.712Z,100164.27
2018-06-19T12:40:15.350Z,100157.98
2018-06-19T12:41:50.911Z,100165.07
2018-06-19T12:43:26.670Z,100162.17
2018-06-19T12:45:04.456Z,100169.44
2018-06-19T12:46:44.887Z,100159.60
2018-06-19T12:48:21.777Z,100162.36
2018-06-19T12:50:39.036Z,100165.25
2018-06-19T12:54:29.878Z,100161.80
2018-06-19T12:56:25.507Z,100169.59
2018-06-19T12:58:01.863Z,100165.73
2018-06-19T12:59:37.892Z,100167.06
2018-06-19T13:01:14.291Z,100165.73
2018-06-19T13:03:01.740Z,100174.25
2018-06-19T13:04:50.371Z,100171.75
2018-06-19T13:06:33.838Z,100181.06
2018-06-19T13:08:10.068Z,100164.27
2018-06-19T13:09:48.198Z,100176.69
2018-06-19T13:11:25.963Z,100177.03
2018-06-19T13:13:24.784Z,100175.55
2018-06-19T13:15:03.084Z,100179.91
2018-06-19T13:16:49.851Z,100171.57
2018-06-19T13:18:41.746Z,100175.50
2018-06-19T13:20:30.471Z,100176.76
2018-06-19T13:22:12.559Z,100168.09
2018-06-19T13:23:53.544Z,100169.94
2018-06-19T13:25:34.432Z,100165.30
2018-06-19T13:27:14.709Z,100168.29
2018-06-19T13:30:05.884Z,100170.69
2018-06-19T13:31:49.247Z,100166.64
2018-06-19T13:33:26.986Z,100170.38
2018-06-19T13:35:07.657Z,100174.20
2018-06-19T13:36:46.427Z,100176.84
2018-06-19T13:38:23.229Z,100172.58
2018-06-19T13:41:26.155Z,100171.00
2018-06-19T13:45:12.984Z,100173.20
2018-06-19T13:46:56.739Z,100169.04
2018-06-19T13:48:37.648Z,100167.48
2018-06-19T13:50:16.730Z,100179.94
2018-06-19T13:51:57.522Z,100169.36
2018-06-19T13:53:35.800Z,100184.50
2018-06-19T13:57:29.559Z,100166.22
2018-06-19T13:59:09.184Z,100169.11
2018-06-19T14:00:47.540Z,100175.02
2018-06-19T14:02:25.674Z,100175.73
2018-06-19T14:04:07.164Z,100177.26
2018-06-19T14:05:45.042Z,100187.87
2018-06-19T14:07:21.593Z,100171.69
2018-06-19T14:09:17.554Z,100166.23
2018-06-19T14:11:09.175Z,100171.91
2018-06-19T14:12:59.360Z,100167.55
2018-06-19T14:14:36.658Z,100168.27
2018-06-19T14:16:14.264Z,100161.94
2018-06-19T14:17:51.063Z,100163.63
2018-06-19T14:19:26.831Z,100162.39
2018-06-19T14:21:02.432Z,100162.59
2018-06-19T14:22:42.223Z,100168.56
2018-06-19T14:24:19.316Z,100165.00
2018-06-19T14:25:58.885Z,100161.45
2018-06-19T14:27:36.876Z,100161.23
2018-06-19T14:29:13.112Z,100164.55
2018-06-19T14:30:49.528Z,100166.64
2018-06-19T14:32:26.777Z,100168.94
2018-06-19T14:34:03.141Z,100161.34
2018-06-19T14:35:39.138Z,100171.35
2018-06-19T14:37:24.000Z,100108.52
2018-06-19T14:39:00.128Z,100180.67
2018-06-19T14:40:35.796Z,100173.72
2018-06-19T14:42:11.679Z,100168.80
2018-06-19T14:43:50.003Z,100176.69
2018-06-19T14:45:27.400Z,100169.75
2018-06-19T14:47:03.819Z,100169.87
2018-06-19T14:48:41.179Z,100170.91
2018-06-19T14:50:16.943Z,100182.02
2018-06-19T14:51:54.796Z,100174.77
2018-06-19T14:53:30.414Z,100181.17
2018-06-19T14:55:06.709Z,100177.09
2018-06-19T14:56:42.342Z,100173.27
2018-06-19T14:58:18.824Z,100170.17
2018-06-19T14:59:54.445Z,100169.83
2018-06-19T15:01:30.842Z,100180.64
2018-06-19T15:03:07.696Z,100174.38
2018-06-19T15:04:43.442Z,100177.42
2018-06-19T15:06:19.816Z,100175.97
2018-06-19T15:07:56.264Z,100177.02
2018-06-19T15:09:33.702Z,100174.77
2018-06-19T15:11:09.299Z,100181.12
2018-06-19T15:12:44.903Z,100178.21
2018-06-19T15:14:25.852Z,100178.52
2018-06-19T15:16:02.743Z,100180.10
2018-06-19T15:17:38.504Z,100182.91
2018-06-19T15:19:14.548Z,100185.53
2018-06-19T15:20:52.834Z,100180.06
2018-06-19T15:22:28.580Z,100179.58
2018-06-19T15:24:11.681Z,100177.52
2018-06-19T15:25:47.987Z,100182.01
2018-06-19T15:27:23.990Z,100177.03
2018-06-19T15:28:59.922Z,100182.22
2018-06-19T15:30:35.965Z,100185.53
2018-06-19T15:32:11.527Z,100189.16
2018-06-19T15:33:47.132Z,100190.20
2018-06-19T15:35:23.208Z,100191.27
2018-06-19T15:36:58.808Z,100198.34
2018-06-19T15:38:34.378Z,100211.43
2018-06-19T15:40:09.984Z,100194.13
2018-06-19T15:41:45.543Z,100192.28
2018-06-19T15:43:21.130Z,100186.16
2018-06-19T15:44:57.602Z,100193.03
2018-06-19T15:46:33.165Z,100197.20
2018-06-19T15:48:08.789Z,100201.72
2018-06-19T15:49:45.488Z,100201.34
2018-06-19T15:51:21.536Z,100198.06
2018-06-19T15:52:57.119Z,100199.61
2018-06-19T15:54:32.723Z,100195.12
2018-06-19T15:56:08.291Z,100195.40
2018-06-19T15:57:43.991Z,100193.47
2018-06-19T15:59:19.917Z,100202.97
2018-06-19T16:00:56.591Z,100200.12
2018-06-19T16:02:32.645Z,100199.66
2018-06-19T16:04:08.234Z,100200.33
2018-06-19T16:05:43.851Z,100202.17
2018-06-19T16:07:19.447Z,100215.97
2018-06-19T16:08:55.012Z,100200.09
2018-06-19T16:10:30.667Z,100203.98
2018-06-19T16:12:06.460Z,100196.84
2018-06-19T16:13:42.028Z,100199.44
2018-06-19T16:15:17.831Z,100202.92
2018-06-19T16:16:53.766Z,100200.42
2018-06-19T16:18:29.380Z,100199.53
2018-06-19T16:20:05.878Z,100199.66
2018-06-19T16:21:42.011Z,100200.63
2018-06-19T16:23:17.693Z,100202.44
2018-06-19T16:24:53.974Z,100202.00
2018-06-19T16:26:31.328Z,100200.66
2018-06-19T16:28:14.970Z,100204.03
2018-06-19T16:29:53.036Z,100198.60
2018-06-19T16:31:30.764Z,100202.00
2018-06-19T16:33:06.498Z,100207.31
2018-06-19T16:34:43.521Z,100203.23
2018-06-19T16:36:19.918Z,100043.05
2018-06-19T16:37:56.323Z,100196.56
2018-06-19T16:39:36.321Z,100201.23
2018-06-19T16:41:12.363Z,100199.55
2018-06-19T16:42:58.739Z,100198.67
2018-06-19T16:44:35.228Z,100202.53
2018-06-19T16:46:10.859Z,100198.84
2018-06-19T16:47:46.527Z,100202.53
2018-06-19T16:49:22.165Z,100204.23
2018-06-19T16:50:57.777Z,100200.53
2018-06-19T16:52:33.413Z,100206.58
2018-06-19T16:54:09.757Z,100201.04
2018-06-19T16:55:45.416Z,100201.68
2018-06-19T16:57:21.012Z,100198.53
2018-06-19T16:58:56.611Z,100199.30
2018-06-19T17:00:32.603Z,100200.72
2018-06-19T17:02:08.353Z,100202.61
2018-06-19T17:03:48.665Z,100202.08
2018-06-19T17:05:28.030Z,100200.65
2018-06-19T17:07:03.704Z,100200.60
2018-06-19T17:08:39.413Z,100203.14
2018-06-19T17:10:16.995Z,100207.39
2018-06-19T17:11:54.555Z,100203.89
2018-06-19T17:13:30.384Z,100201.71
2018-06-19T17:15:06.799Z,100201.51
2018-06-19T17:16:45.197Z,100201.06
2018-06-19T17:18:26.237Z,100197.04
2018-06-19T17:20:14.337Z,100200.20
2018-06-19T17:21:50.539Z,100192.20
2018-06-19T17:23:27.006Z,100194.39
2018-06-19T17:25:02.988Z,100200.45
2018-06-19T17:26:41.523Z,100200.50
2018-06-19T17:28:28.141Z,100193.72
2018-06-19T17:30:05.560Z,100196.03
2018-06-19T17:31:41.987Z,100200.33
2018-06-19T17:33:19.256Z,100202.38
2018-06-19T17:34:56.333Z,100210.84
2018-06-19T17:36:44.444Z,100203.77
2018-06-19T17:38:23.211Z,100204.12
2018-06-19T17:40:01.359Z,100201.84
2018-06-19T17:41:48.177Z,100209.78
2018-06-19T17:43:31.410Z,100200.67
2018-06-19T17:45:15.557Z,100201.73
2018-06-19T17:47:00.875Z,100198.14
2018-06-19T17:48:43.882Z,100201.35
2018-06-19T17:50:21.461Z,100200.97
2018-06-19T17:52:01.909Z,100197.56
2018-06-19T17:53:41.084Z,100200.39
2018-06-19T17:55:24.585Z,100200.87
2018-06-19T17:57:05.396Z,100195.19
2018-06-19T18:00:29.051Z,100203.39
2018-06-19T18:02:12.477Z,100207.97
2018-06-19T18:03:53.907Z,100207.12
2018-06-19T18:05:39.351Z,100212.73
2018-06-19T18:07:19.497Z,100209.91
2018-06-19T18:09:02.223Z,100208.84
2018-06-19T18:10:37.887Z,100208.62
2018-06-19T18:12:14.918Z,100205.68
2018-06-19T18:13:56.544Z,100207.92
2018-06-19T18:15:55.011Z,100213.44
2018-06-19T18:17:37.191Z,100206.15
2018-06-19T18:19:20.553Z,100207.39
2018-06-19T18:21:00.260Z,100207.30
2018-06-19T18:22:45.149Z,100209.61
2018-06-19T18:24:28.098Z,100208.60
2018-06-19T18:26:09.079Z,100211.26
2018-06-19T18:27:49.097Z,100209.39
2018-06-19T18:29:28.950Z,100205.50
2018-06-19T18:31:09.551Z,100207.42
2018-06-19T18:32:49.589Z,100208.69
2018-06-19T18:34:30.508Z,100209.27
2018-06-19T18:36:11.566Z,100203.88